sensor_id;sensor_type;location;lat;lon;timestamp;temperature;humidity
53314;DHT22;39202;51.468;7.146;2022-08-11T00:03:12;32.20;31.00
53314;DHT22;39202;51.468;7.146;2022-08-11T00:08:21;32.10;30.90
53314;DHT22;39202;51.468;7.146;2022-08-11T00:13:31;32.10;31.80
53314;DHT22;39202;51.468;7.146;2022-08-11T00:18:38;32.10;31.20
53314;DHT22;39202;51.468;7.146;2022-08-11T00:23:43;32.00;31.20
53314;DHT22;39202;51.468;7.146;2022-08-11T00:28:45;32.00;31.20
53314;DHT22;39202;51.468;7.146;2022-08-11T00:33:48;32.00;31.20
53314;DHT22;39202;51.468;7.146;2022-08-11T00:38:54;32.00;31.30
53314;DHT22;39202;51.468;7.146;2022-08-11T00:44:22;32.00;31.30
53314;DHT22;39202;51.468;7.146;2022-08-11T00:49:39;32.00;31.40
53314;DHT22;39202;51.468;7.146;2022-08-11T01:00:48;32.00;31.60
53314;DHT22;39202;51.468;7.146;2022-08-11T01:06:12;32.00;31.70
53314;DHT22;39202;51.468;7.146;2022-08-11T01:11:51;31.90;31.70
53314;DHT22;39202;51.468;7.146;2022-08-11T01:17:12;31.90;31.70
53314;DHT22;39202;51.468;7.146;2022-08-11T01:23:11;31.90;31.70
53314;DHT22;39202;51.468;7.146;2022-08-11T01:28:47;31.90;31.80
53314;DHT22;39202;51.468;7.146;2022-08-11T01:39:55;31.90;31.90
53314;DHT22;39202;51.468;7.146;2022-08-11T01:45:20;31.90;31.90
53314;DHT22;39202;51.468;7.146;2022-08-11T01:50:37;31.90;31.90
53314;DHT22;39202;51.468;7.146;2022-08-11T01:55:49;31.80;31.90
53314;DHT22;39202;51.468;7.146;2022-08-11T02:01:04;31.80;31.90
53314;DHT22;39202;51.468;7.146;2022-08-11T02:06:15;31.80;31.90
53314;DHT22;39202;51.468;7.146;2022-08-11T02:11:39;31.80;32.00
53314;DHT22;39202;51.468;7.146;2022-08-11T02:17:01;31.70;31.90
53314;DHT22;39202;51.468;7.146;2022-08-11T02:22:09;31.70;32.00
53314;DHT22;39202;51.468;7.146;2022-08-11T02:27:40;31.70;32.00
53314;DHT22;39202;51.468;7.146;2022-08-11T02:32:47;31.70;32.00
53314;DHT22;39202;51.468;7.146;2022-08-11T02:38:15;31.70;32.00
53314;DHT22;39202;51.468;7.146;2022-08-11T02:43:28;31.70;32.10
53314;DHT22;39202;51.468;7.146;2022-08-11T02:48:47;31.70;32.20
53314;DHT22;39202;51.468;7.146;2022-08-11T02:54:14;31.60;32.20
53314;DHT22;39202;51.468;7.146;2022-08-11T02:59:32;31.60;32.20
53314;DHT22;39202;51.468;7.146;2022-08-11T03:04:59;31.60;32.30
53314;DHT22;39202;51.468;7.146;2022-08-11T03:10:09;31.60;32.30
53314;DHT22;39202;51.468;7.146;2022-08-11T03:15:21;31.60;32.40
53314;DHT22;39202;51.468;7.146;2022-08-11T03:20:44;31.60;32.40
53314;DHT22;39202;51.468;7.146;2022-08-11T03:25:53;31.50;32.40
53314;DHT22;39202;51.468;7.146;2022-08-11T03:31:19;31.50;32.40
53314;DHT22;39202;51.468;7.146;2022-08-11T03:42:00;31.50;32.50
53314;DHT22;39202;51.468;7.146;2022-08-11T03:47:17;31.50;32.50
53314;DHT22;39202;51.468;7.146;2022-08-11T03:52:31;31.40;32.60
53314;DHT22;39202;51.468;7.146;2022-08-11T04:03:26;31.40;32.70
53314;DHT22;39202;51.468;7.146;2022-08-11T04:09:10;31.30;32.60
53314;DHT22;39202;51.468;7.146;2022-08-11T04:14:42;31.40;32.60
53314;DHT22;39202;51.468;7.146;2022-08-11T04:20:28;31.40;32.70
53314;DHT22;39202;51.468;7.146;2022-08-11T04:26:05;31.40;32.70
53314;DHT22;39202;51.468;7.146;2022-08-11T04:31:33;31.30;32.80
53314;DHT22;39202;51.468;7.146;2022-08-11T04:36:55;31.30;32.80
53314;DHT22;39202;51.468;7.146;2022-08-11T04:42:53;31.30;32.90
53314;DHT22;39202;51.468;7.146;2022-08-11T04:48:46;31.30;33.00
53314;DHT22;39202;51.468;7.146;2022-08-11T04:54:23;31.20;33.00
53314;DHT22;39202;51.468;7.146;2022-08-11T05:00:08;31.20;33.00
53314;DHT22;39202;51.468;7.146;2022-08-11T05:16:49;31.10;33.10
53314;DHT22;39202;51.468;7.146;2022-08-11T05:22:11;31.10;33.00
53314;DHT22;39202;51.468;7.146;2022-08-11T05:32:38;31.00;33.00
53314;DHT22;39202;51.468;7.146;2022-08-11T05:37:58;30.90;33.10
53314;DHT22;39202;51.468;7.146;2022-08-11T05:43:19;30.90;33.20
53314;DHT22;39202;51.468;7.146;2022-08-11T05:48:42;30.80;33.20
53314;DHT22;39202;51.468;7.146;2022-08-11T05:54:03;30.80;33.60
53314;DHT22;39202;51.468;7.146;2022-08-11T05:59:24;30.80;33.90
53314;DHT22;39202;51.468;7.146;2022-08-11T06:04:29;30.80;34.00
53314;DHT22;39202;51.468;7.146;2022-08-11T06:09:33;30.90;34.20
53314;DHT22;39202;51.468;7.146;2022-08-11T06:14:41;30.90;34.10
53314;DHT22;39202;51.468;7.146;2022-08-11T06:19:46;30.90;34.30
53314;DHT22;39202;51.468;7.146;2022-08-11T06:24:53;31.00;34.30
53314;DHT22;39202;51.468;7.146;2022-08-11T06:29:57;31.00;34.30
53314;DHT22;39202;51.468;7.146;2022-08-11T06:35:18;31.10;34.30
53314;DHT22;39202;51.468;7.146;2022-08-11T06:40:32;31.10;34.40
53314;DHT22;39202;51.468;7.146;2022-08-11T06:45:40;31.20;34.40
53314;DHT22;39202;51.468;7.146;2022-08-11T06:50:48;31.20;34.30
53314;DHT22;39202;51.468;7.146;2022-08-11T06:56:09;31.30;34.40
53314;DHT22;39202;51.468;7.146;2022-08-11T07:01:37;31.30;34.20
53314;DHT22;39202;51.468;7.146;2022-08-11T07:06:57;31.40;34.30
53314;DHT22;39202;51.468;7.146;2022-08-11T07:12:36;31.50;34.20
53314;DHT22;39202;51.468;7.146;2022-08-11T07:18:02;31.50;34.20
53314;DHT22;39202;51.468;7.146;2022-08-11T07:23:24;31.60;34.10
53314;DHT22;39202;51.468;7.146;2022-08-11T07:28:46;31.60;34.00
53314;DHT22;39202;51.468;7.146;2022-08-11T07:34:09;31.60;34.00
53314;DHT22;39202;51.468;7.146;2022-08-11T07:39:17;31.70;34.00
53314;DHT22;39202;51.468;7.146;2022-08-11T07:44:21;31.80;34.00
53314;DHT22;39202;51.468;7.146;2022-08-11T07:49:30;31.80;33.90
53314;DHT22;39202;51.468;7.146;2022-08-11T07:54:52;31.90;33.90
53314;DHT22;39202;51.468;7.146;2022-08-11T07:59:56;31.90;33.50
53314;DHT22;39202;51.468;7.146;2022-08-11T08:05:16;32.00;33.70
53314;DHT22;39202;51.468;7.146;2022-08-11T08:10:38;32.00;33.70
53314;DHT22;39202;51.468;7.146;2022-08-11T08:15:57;32.10;33.60
53314;DHT22;39202;51.468;7.146;2022-08-11T08:21:17;32.10;33.50
53314;DHT22;39202;51.468;7.146;2022-08-11T08:26:20;32.20;33.50
53314;DHT22;39202;51.468;7.146;2022-08-11T08:31:39;32.20;33.30
53314;DHT22;39202;51.468;7.146;2022-08-11T08:36:43;32.30;33.20
53314;DHT22;39202;51.468;7.146;2022-08-11T08:41:48;32.30;32.90
53314;DHT22;39202;51.468;7.146;2022-08-11T08:46:55;32.40;33.00
53314;DHT22;39202;51.468;7.146;2022-08-11T08:52:01;32.50;33.00
53314;DHT22;39202;51.468;7.146;2022-08-11T08:57:07;32.50;32.80
53314;DHT22;39202;51.468;7.146;2022-08-11T09:02:11;32.60;32.50
53314;DHT22;39202;51.468;7.146;2022-08-11T09:07:16;32.70;32.60
53314;DHT22;39202;51.468;7.146;2022-08-11T09:12:21;32.80;32.60
53314;DHT22;39202;51.468;7.146;2022-08-11T09:17:28;32.90;32.50
53314;DHT22;39202;51.468;7.146;2022-08-11T09:22:32;33.00;32.40
53314;DHT22;39202;51.468;7.146;2022-08-11T09:27:54;33.00;32.20
53314;DHT22;39202;51.468;7.146;2022-08-11T09:32:58;33.10;32.10
53314;DHT22;39202;51.468;7.146;2022-08-11T09:38:03;33.20;31.90
53314;DHT22;39202;51.468;7.146;2022-08-11T09:43:24;33.20;31.30
53314;DHT22;39202;51.468;7.146;2022-08-11T09:48:45;33.30;31.00
53314;DHT22;39202;51.468;7.146;2022-08-11T09:53:48;33.40;31.10
53314;DHT22;39202;51.468;7.146;2022-08-11T09:58:52;33.40;31.00
53314;DHT22;39202;51.468;7.146;2022-08-11T10:04:00;33.40;30.60
53314;DHT22;39202;51.468;7.146;2022-08-11T10:09:05;33.50;37.10
53314;DHT22;39202;51.468;7.146;2022-08-11T10:14:09;33.60;38.90
53314;DHT22;39202;51.468;7.146;2022-08-11T10:19:30;33.70;38.60
53314;DHT22;39202;51.468;7.146;2022-08-11T10:24:33;33.70;30.00
53314;DHT22;39202;51.468;7.146;2022-08-11T10:29:54;33.80;38.50
53314;DHT22;39202;51.468;7.146;2022-08-11T10:35:14;33.90;29.80
53314;DHT22;39202;51.468;7.146;2022-08-11T10:40:18;34.00;29.40
53314;DHT22;39202;51.468;7.146;2022-08-11T10:45:23;34.10;29.30
53314;DHT22;39202;51.468;7.146;2022-08-11T10:50:45;34.10;29.10
53314;DHT22;39202;51.468;7.146;2022-08-11T10:56:05;34.20;33.80
53314;DHT22;39202;51.468;7.146;2022-08-11T11:01:29;34.30;45.00
53314;DHT22;39202;51.468;7.146;2022-08-11T11:06:35;34.40;55.30
53314;DHT22;39202;51.468;7.146;2022-08-11T11:11:47;34.40;52.90
53314;DHT22;39202;51.468;7.146;2022-08-11T11:17:11;34.50;51.50
53314;DHT22;39202;51.468;7.146;2022-08-11T11:22:31;34.50;42.70
53314;DHT22;39202;51.468;7.146;2022-08-11T11:27:51;34.40;41.30
53314;DHT22;39202;51.468;7.146;2022-08-11T11:33:03;34.40;37.40
53314;DHT22;39202;51.468;7.146;2022-08-11T11:38:09;34.40;38.70
53314;DHT22;39202;51.468;7.146;2022-08-11T11:43:11;34.30;37.80
53314;DHT22;39202;51.468;7.146;2022-08-11T11:48:14;34.30;37.10
53314;DHT22;39202;51.468;7.146;2022-08-11T11:53:17;34.30;36.00
53314;DHT22;39202;51.468;7.146;2022-08-11T11:58:19;34.30;35.80
53314;DHT22;39202;51.468;7.146;2022-08-11T12:03:40;34.30;34.00
53314;DHT22;39202;51.468;7.146;2022-08-11T12:08:47;34.30;28.60
53314;DHT22;39202;51.468;7.146;2022-08-11T12:13:52;34.30;28.70
53314;DHT22;39202;51.468;7.146;2022-08-11T12:18:58;34.40;28.60
53314;DHT22;39202;51.468;7.146;2022-08-11T12:24:01;34.40;32.20
53314;DHT22;39202;51.468;7.146;2022-08-11T12:29:21;34.40;28.50
53314;DHT22;39202;51.468;7.146;2022-08-11T12:34:28;34.40;28.30
53314;DHT22;39202;51.468;7.146;2022-08-11T12:39:33;34.40;28.40
53314;DHT22;39202;51.468;7.146;2022-08-11T12:44:54;34.40;28.30
53314;DHT22;39202;51.468;7.146;2022-08-11T12:50:16;34.40;28.30
53314;DHT22;39202;51.468;7.146;2022-08-11T12:55:36;34.40;28.50
53314;DHT22;39202;51.468;7.146;2022-08-11T13:00:57;34.40;28.40
53314;DHT22;39202;51.468;7.146;2022-08-11T13:06:18;34.40;28.50
53314;DHT22;39202;51.468;7.146;2022-08-11T13:11:23;34.40;28.60
53314;DHT22;39202;51.468;7.146;2022-08-11T13:16:44;34.50;28.60
53314;DHT22;39202;51.468;7.146;2022-08-11T13:22:05;34.60;28.40
53314;DHT22;39202;51.468;7.146;2022-08-11T13:27:07;34.60;29.10
53314;DHT22;39202;51.468;7.146;2022-08-11T13:32:13;34.60;28.30
53314;DHT22;39202;51.468;7.146;2022-08-11T13:37:19;34.60;28.70
53314;DHT22;39202;51.468;7.146;2022-08-11T13:42:21;34.60;28.10
53314;DHT22;39202;51.468;7.146;2022-08-11T13:47:24;34.60;29.50
53314;DHT22;39202;51.468;7.146;2022-08-11T13:52:27;34.60;28.60
53314;DHT22;39202;51.468;7.146;2022-08-11T13:57:31;34.50;28.60
53314;DHT22;39202;51.468;7.146;2022-08-11T14:02:34;34.60;27.90
53314;DHT22;39202;51.468;7.146;2022-08-11T14:07:40;34.50;30.20
53314;DHT22;39202;51.468;7.146;2022-08-11T14:12:46;34.50;29.80
53314;DHT22;39202;51.468;7.146;2022-08-11T14:18:12;34.50;31.50
53314;DHT22;39202;51.468;7.146;2022-08-11T14:23:17;34.40;28.20
53314;DHT22;39202;51.468;7.146;2022-08-11T14:28:20;34.60;29.10
53314;DHT22;39202;51.468;7.146;2022-08-11T14:33:21;34.40;28.70
53314;DHT22;39202;51.468;7.146;2022-08-11T14:38:25;34.40;31.00
53314;DHT22;39202;51.468;7.146;2022-08-11T14:43:27;34.30;27.90
53314;DHT22;39202;51.468;7.146;2022-08-11T14:48:42;34.40;29.90
53314;DHT22;39202;51.468;7.146;2022-08-11T14:53:46;34.40;29.50
53314;DHT22;39202;51.468;7.146;2022-08-11T14:58:49;34.40;30.60
53314;DHT22;39202;51.468;7.146;2022-08-11T15:03:51;34.40;28.90
53314;DHT22;39202;51.468;7.146;2022-08-11T15:08:55;34.50;29.70
53314;DHT22;39202;51.468;7.146;2022-08-11T15:13:58;34.40;30.10
53314;DHT22;39202;51.468;7.146;2022-08-11T15:19:01;34.40;30.90
53314;DHT22;39202;51.468;7.146;2022-08-11T15:24:06;34.40;31.40
53314;DHT22;39202;51.468;7.146;2022-08-11T15:29:23;34.40;30.10
53314;DHT22;39202;51.468;7.146;2022-08-11T15:34:45;34.40;31.00
53314;DHT22;39202;51.468;7.146;2022-08-11T15:40:12;34.30;30.50
53314;DHT22;39202;51.468;7.146;2022-08-11T15:45:36;34.30;32.30
53314;DHT22;39202;51.468;7.146;2022-08-11T15:50:52;34.30;31.20
53314;DHT22;39202;51.468;7.146;2022-08-11T15:55:57;34.20;31.60
53314;DHT22;39202;51.468;7.146;2022-08-11T16:01:01;34.30;30.60
53314;DHT22;39202;51.468;7.146;2022-08-11T16:06:21;34.20;29.30
53314;DHT22;39202;51.468;7.146;2022-08-11T16:11:25;34.20;29.30
53314;DHT22;39202;51.468;7.146;2022-08-11T16:16:27;34.20;29.80
53314;DHT22;39202;51.468;7.146;2022-08-11T16:21:31;34.30;29.70
53314;DHT22;39202;51.468;7.146;2022-08-11T16:26:40;34.10;30.00
53314;DHT22;39202;51.468;7.146;2022-08-11T16:31:42;34.10;30.00
53314;DHT22;39202;51.468;7.146;2022-08-11T16:37:04;34.10;29.50
53314;DHT22;39202;51.468;7.146;2022-08-11T16:42:25;34.10;30.10
53314;DHT22;39202;51.468;7.146;2022-08-11T16:47:45;34.10;31.70
53314;DHT22;39202;51.468;7.146;2022-08-11T16:52:47;34.10;30.00
53314;DHT22;39202;51.468;7.146;2022-08-11T16:57:53;34.10;31.00
53314;DHT22;39202;51.468;7.146;2022-08-11T17:03:26;34.10;33.00
53314;DHT22;39202;51.468;7.146;2022-08-11T17:08:49;34.00;30.60
53314;DHT22;39202;51.468;7.146;2022-08-11T17:14:12;34.00;31.00
53314;DHT22;39202;51.468;7.146;2022-08-11T17:19:20;34.10;32.10
53314;DHT22;39202;51.468;7.146;2022-08-11T17:24:23;34.00;32.60
53314;DHT22;39202;51.468;7.146;2022-08-11T17:29:31;34.00;33.30
53314;DHT22;39202;51.468;7.146;2022-08-11T17:34:34;34.00;32.90
53314;DHT22;39202;51.468;7.146;2022-08-11T17:39:55;34.20;33.40
53314;DHT22;39202;51.468;7.146;2022-08-11T17:45:00;34.00;33.70
53314;DHT22;39202;51.468;7.146;2022-08-11T17:50:20;34.00;33.70
53314;DHT22;39202;51.468;7.146;2022-08-11T17:55:23;34.00;34.20
53314;DHT22;39202;51.468;7.146;2022-08-11T18:00:44;34.00;33.90
53314;DHT22;39202;51.468;7.146;2022-08-11T18:05:47;33.90;34.00
53314;DHT22;39202;51.468;7.146;2022-08-11T18:10:50;33.90;34.20
53314;DHT22;39202;51.468;7.146;2022-08-11T18:16:11;33.90;34.00
53314;DHT22;39202;51.468;7.146;2022-08-11T18:21:30;33.90;34.20
53314;DHT22;39202;51.468;7.146;2022-08-11T18:26:51;33.90;34.00
53314;DHT22;39202;51.468;7.146;2022-08-11T18:32:13;33.90;34.90
53314;DHT22;39202;51.468;7.146;2022-08-11T18:37:35;33.90;35.10
53314;DHT22;39202;51.468;7.146;2022-08-11T18:42:58;33.90;35.50
53314;DHT22;39202;51.468;7.146;2022-08-11T18:48:21;33.80;36.70
53314;DHT22;39202;51.468;7.146;2022-08-11T18:53:44;33.90;36.30
53314;DHT22;39202;51.468;7.146;2022-08-11T18:59:06;33.80;36.50
53314;DHT22;39202;51.468;7.146;2022-08-11T19:04:28;33.80;37.30
53314;DHT22;39202;51.468;7.146;2022-08-11T19:09:48;33.70;37.80
53314;DHT22;39202;51.468;7.146;2022-08-11T19:15:09;33.70;38.50
53314;DHT22;39202;51.468;7.146;2022-08-11T19:20:33;33.70;37.10
53314;DHT22;39202;51.468;7.146;2022-08-11T19:25:53;33.60;40.60
53314;DHT22;39202;51.468;7.146;2022-08-11T19:31:14;33.60;27.90
53314;DHT22;39202;51.468;7.146;2022-08-11T19:36:35;33.60;28.50
53314;DHT22;39202;51.468;7.146;2022-08-11T19:41:56;33.50;42.60
53314;DHT22;39202;51.468;7.146;2022-08-11T19:47:16;33.50;44.60
53314;DHT22;39202;51.468;7.146;2022-08-11T19:52:38;33.40;28.20
53314;DHT22;39202;51.468;7.146;2022-08-11T19:57:58;33.40;28.40
53314;DHT22;39202;51.468;7.146;2022-08-11T20:03:19;33.40;28.50
53314;DHT22;39202;51.468;7.146;2022-08-11T20:08:42;33.40;28.60
53314;DHT22;39202;51.468;7.146;2022-08-11T20:14:02;33.40;28.80
53314;DHT22;39202;51.468;7.146;2022-08-11T20:19:24;33.30;28.70
53314;DHT22;39202;51.468;7.146;2022-08-11T20:24:46;33.30;28.80
53314;DHT22;39202;51.468;7.146;2022-08-11T20:30:07;33.30;28.90
53314;DHT22;39202;51.468;7.146;2022-08-11T20:35:27;33.30;28.90
53314;DHT22;39202;51.468;7.146;2022-08-11T20:40:48;33.30;29.00
53314;DHT22;39202;51.468;7.146;2022-08-11T20:46:09;33.30;29.20
53314;DHT22;39202;51.468;7.146;2022-08-11T20:51:29;33.30;29.20
53314;DHT22;39202;51.468;7.146;2022-08-11T20:56:50;33.30;29.20
53314;DHT22;39202;51.468;7.146;2022-08-11T21:02:11;33.30;29.30
53314;DHT22;39202;51.468;7.146;2022-08-11T21:07:37;33.30;29.30
53314;DHT22;39202;51.468;7.146;2022-08-11T21:13:00;33.30;29.40
53314;DHT22;39202;51.468;7.146;2022-08-11T21:18:22;33.30;29.50
53314;DHT22;39202;51.468;7.146;2022-08-11T21:23:42;33.20;29.40
53314;DHT22;39202;51.468;7.146;2022-08-11T21:29:05;33.20;29.50
53314;DHT22;39202;51.468;7.146;2022-08-11T21:34:25;33.20;29.60
53314;DHT22;39202;51.468;7.146;2022-08-11T21:39:46;33.20;29.60
53314;DHT22;39202;51.468;7.146;2022-08-11T21:45:09;33.20;29.60
53314;DHT22;39202;51.468;7.146;2022-08-11T21:50:30;33.20;29.60
53314;DHT22;39202;51.468;7.146;2022-08-11T21:55:50;33.20;29.60
53314;DHT22;39202;51.468;7.146;2022-08-11T22:01:12;33.20;29.70
53314;DHT22;39202;51.468;7.146;2022-08-11T22:06:32;33.10;29.70
53314;DHT22;39202;51.468;7.146;2022-08-11T22:11:52;33.10;29.70
53314;DHT22;39202;51.468;7.146;2022-08-11T22:17:13;33.10;70.40
53314;DHT22;39202;51.468;7.146;2022-08-11T22:22:33;33.10;35.60
53314;DHT22;39202;51.468;7.146;2022-08-11T22:27:53;33.00;29.80
53314;DHT22;39202;51.468;7.146;2022-08-11T22:33:14;33.00;29.70
53314;DHT22;39202;51.468;7.146;2022-08-11T22:38:36;33.00;29.80
53314;DHT22;39202;51.468;7.146;2022-08-11T22:43:56;33.00;29.80
53314;DHT22;39202;51.468;7.146;2022-08-11T22:49:18;33.00;29.80
53314;DHT22;39202;51.468;7.146;2022-08-11T22:54:38;32.90;29.90
53314;DHT22;39202;51.468;7.146;2022-08-11T22:59:59;32.90;29.90
53314;DHT22;39202;51.468;7.146;2022-08-11T23:05:20;32.90;29.90
53314;DHT22;39202;51.468;7.146;2022-08-11T23:10:40;32.90;30.00
53314;DHT22;39202;51.468;7.146;2022-08-11T23:16:00;32.90;30.00
53314;DHT22;39202;51.468;7.146;2022-08-11T23:21:21;32.90;30.00
53314;DHT22;39202;51.468;7.146;2022-08-11T23:26:41;32.80;30.00
53314;DHT22;39202;51.468;7.146;2022-08-11T23:32:01;32.80;30.00
53314;DHT22;39202;51.468;7.146;2022-08-11T23:37:22;32.80;30.00
53314;DHT22;39202;51.468;7.146;2022-08-11T23:42:42;32.70;30.00
53314;DHT22;39202;51.468;7.146;2022-08-11T23:48:02;32.70;30.00
53314;DHT22;39202;51.468;7.146;2022-08-11T23:53:23;32.70;30.00
53314;DHT22;39202;51.468;7.146;2022-08-11T23:58:43;32.60;30.00
